Time;durP1;ratioP1;P1;durP2;ratioP2;P2;SDS_P1;SDS_P2;PMS_P1;PMS_P2;Temp;Humidity;BMP_temperature;BMP_pressure;BME280_temperature;BME280_humidity;BME280_pressure;Samples;Min_cycle;Max_cycle;Signal;HPM_P1;HPM_P2
2023/07/06 00:02:25;;;;;;;2.70;2.10;;;;;;;;;;5068669;28;20451;-58
2023/07/06 00:04:52;;;;;;;2.50;2.30;;;;;;;;;;5068231;28;20200;-58
2023/07/06 00:07:21;;;;;;;3.53;1.83;;;;;;;;;;5069128;28;20466;-58
2023/07/06 00:09:48;;;;;;;2.40;2.17;;;;;;;;;;5068491;28;20693;-57
2023/07/06 00:12:15;;;;;;;2.37;2.17;;;;;;;;;;5069382;28;20666;-57
2023/07/06 00:14:41;;;;;;;3.03;2.40;;;;;;;;;;5068717;28;20218;-57
2023/07/06 00:17:15;;;;;;;2.30;2.10;;;;;;;;;;5068351;28;20192;-57
2023/07/06 00:19:41;;;;;;;3.30;2.00;;;;;;;;;;5068440;28;20628;-57
2023/07/06 00:22:09;;;;;;;2.60;2.23;;;;;;;;;;5068956;28;20172;-57
2023/07/06 00:24:36;;;;;;;2.50;2.20;;;;;;;;;;5068752;28;20207;-57
2023/07/06 00:27:02;;;;;;;2.50;2.30;;;;;;;;;;5069444;28;20163;-57
2023/07/06 00:29:33;;;;;;;2.73;2.00;;;;;;;;;;5068891;28;20210;-57
2023/07/06 00:32:15;;;;;;;1.93;1.83;;;;;;;;;;5068585;28;20586;-57
2023/07/06 00:34:43;;;;;;;2.87;2.00;;;;;;;;;;5068393;28;20167;-57
2023/07/06 00:37:11;;;;;;;2.63;2.07;;;;;;;;;;5069059;28;20200;-57
2023/07/06 00:39:37;;;;;;;2.50;2.30;;;;;;;;;;5068562;28;20808;-57
2023/07/06 00:42:05;;;;;;;1.80;1.70;;;;;;;;;;5069273;28;20214;-57
2023/07/06 00:44:48;;;;;;;2.53;2.00;;;;;;;;;;5068768;28;20154;-57
2023/07/06 00:47:15;;;;;;;1.93;1.80;;;;;;;;;;5067965;28;20226;-57
2023/07/06 00:49:41;;;;;;;2.53;2.10;;;;;;;;;;5068109;28;20165;-58
2023/07/06 00:52:10;;;;;;;2.57;2.03;;;;;;;;;;5068743;28;20193;-57
2023/07/06 00:54:37;;;;;;;2.40;2.20;;;;;;;;;;5068661;28;20578;-58
2023/07/06 00:57:04;;;;;;;2.33;2.10;;;;;;;;;;5068510;28;20221;-57
2023/07/06 00:59:31;;;;;;;2.93;1.87;;;;;;;;;;5068422;28;20709;-58
2023/07/06 01:02:00;;;;;;;3.00;2.00;;;;;;;;;;5071038;28;20523;-57
2023/07/06 01:04:27;;;;;;;2.50;2.20;;;;;;;;;;5071656;28;20194;-57
2023/07/06 01:06:54;;;;;;;1.80;1.70;;;;;;;;;;5072436;28;20709;-60
2023/07/06 01:09:21;;;;;;;2.40;2.20;;;;;;;;;;5072264;28;20158;-57
2023/07/06 01:11:48;;;;;;;2.43;2.23;;;;;;;;;;5072557;28;20185;-58
2023/07/06 01:14:15;;;;;;;2.33;2.20;;;;;;;;;;5072240;28;20232;-57
2023/07/06 01:16:46;;;;;;;2.10;1.90;;;;;;;;;;5071582;28;20606;-57
2023/07/06 01:19:35;;;;;;;2.60;2.40;;;;;;;;;;5071526;28;20238;-57
2023/07/06 01:22:13;;;;;;;3.23;1.87;;;;;;;;;;5071569;28;20182;-58
2023/07/06 01:24:42;;;;;;;3.23;2.20;;;;;;;;;;5071768;28;20169;-58
2023/07/06 01:27:14;;;;;;;3.77;2.47;;;;;;;;;;5071912;28;20199;-57
2023/07/06 01:29:52;;;;;;;2.17;1.97;;;;;;;;;;5071677;28;20172;-57
2023/07/06 01:32:24;;;;;;;2.10;2.00;;;;;;;;;;5053121;28;20226;-57
2023/07/06 01:34:54;;;;;;;2.50;2.30;;;;;;;;;;5071647;28;20507;-57
2023/07/06 01:37:41;;;;;;;2.10;1.90;;;;;;;;;;5072163;28;20651;-57
2023/07/06 01:40:11;;;;;;;2.83;2.47;;;;;;;;;;5071452;28;20263;-57
2023/07/06 01:42:42;;;;;;;2.77;2.23;;;;;;;;;;5072218;28;20161;-57
2023/07/06 01:45:10;;;;;;;2.87;2.00;;;;;;;;;;5071391;28;20306;-58
2023/07/06 01:47:39;;;;;;;2.30;2.20;;;;;;;;;;5070892;28;20173;-57
2023/07/06 01:50:06;;;;;;;2.40;2.20;;;;;;;;;;5071156;28;20169;-57
2023/07/06 01:52:49;;;;;;;2.27;2.07;;;;;;;;;;5071638;28;20659;-58
2023/07/06 01:55:16;;;;;;;2.40;2.20;;;;;;;;;;5071822;28;20184;-57
2023/07/06 01:57:49;;;;;;;2.17;2.00;;;;;;;;;;5071562;28;20578;-57
2023/07/06 02:00:18;;;;;;;2.27;2.07;;;;;;;;;;5071164;28;20172;-57
2023/07/06 02:02:47;;;;;;;2.90;2.27;;;;;;;;;;5070896;28;20179;-58
2023/07/06 02:05:13;;;;;;;2.30;2.10;;;;;;;;;;5070609;28;20223;-57
2023/07/06 02:07:41;;;;;;;2.00;1.90;;;;;;;;;;5053190;28;20616;-58
2023/07/06 02:10:08;;;;;;;2.47;2.07;;;;;;;;;;5071204;28;20164;-58
2023/07/06 02:12:34;;;;;;;2.70;2.20;;;;;;;;;;5070342;28;20177;-57
2023/07/06 02:15:00;;;;;;;2.40;2.20;;;;;;;;;;5071352;28;20168;-57
2023/07/06 02:17:26;;;;;;;2.33;1.97;;;;;;;;;;5070508;28;20617;-57
2023/07/06 02:19:52;;;;;;;2.63;2.43;;;;;;;;;;5070571;28;20157;-58
2023/07/06 02:22:21;;;;;;;2.40;2.07;;;;;;;;;;5071229;28;20624;-57
2023/07/06 02:24:47;;;;;;;2.60;2.40;;;;;;;;;;5071067;28;20161;-57
2023/07/06 02:27:13;;;;;;;2.47;2.30;;;;;;;;;;5071088;28;20313;-58
2023/07/06 02:29:41;;;;;;;3.53;2.33;;;;;;;;;;5071058;28;20266;-58
2023/07/06 02:32:09;;;;;;;3.53;2.20;;;;;;;;;;5070477;28;20168;-58
2023/07/06 02:34:36;;;;;;;2.80;2.60;;;;;;;;;;5070641;28;20173;-57
2023/07/06 02:37:03;;;;;;;2.43;2.23;;;;;;;;;;5070916;28;20525;-57
2023/07/06 02:39:30;;;;;;;2.90;2.70;;;;;;;;;;5070786;28;20599;-57
2023/07/06 02:41:56;;;;;;;2.80;2.10;;;;;;;;;;5070549;28;20165;-58
2023/07/06 02:44:23;;;;;;;2.77;2.40;;;;;;;;;;5052822;28;20168;-58
2023/07/06 02:46:49;;;;;;;2.03;1.93;;;;;;;;;;5070479;28;20222;-58
2023/07/06 02:49:16;;;;;;;2.63;2.20;;;;;;;;;;5069840;28;20219;-58
2023/07/06 02:51:42;;;;;;;2.50;2.30;;;;;;;;;;5070867;28;20258;-58
2023/07/06 02:54:11;;;;;;;2.80;2.60;;;;;;;;;;5070455;28;20183;-57
2023/07/06 02:56:37;;;;;;;2.60;2.40;;;;;;;;;;5070364;28;20609;-58
2023/07/06 02:59:03;;;;;;;5.20;2.63;;;;;;;;;;5070512;28;20275;-58
2023/07/06 03:01:29;;;;;;;2.80;2.60;;;;;;;;;;5069977;28;20172;-58
2023/07/06 03:03:55;;;;;;;2.37;2.17;;;;;;;;;;5069476;28;20192;-58
2023/07/06 03:06:22;;;;;;;2.93;2.20;;;;;;;;;;5070330;28;20242;-58
2023/07/06 03:08:48;;;;;;;4.20;2.23;;;;;;;;;;5069955;28;20521;-58
2023/07/06 03:11:16;;;;;;;5.37;2.60;;;;;;;;;;5070378;28;20164;-58
2023/07/06 03:13:42;;;;;;;2.30;2.10;;;;;;;;;;5069896;28;20172;-58
2023/07/06 03:16:09;;;;;;;2.90;2.67;;;;;;;;;;5070152;28;20184;-58
2023/07/06 03:18:36;;;;;;;2.80;2.60;;;;;;;;;;5068624;28;20667;-58
2023/07/06 03:21:02;;;;;;;3.00;2.50;;;;;;;;;;5069392;28;20168;-58
2023/07/06 03:23:28;;;;;;;3.07;2.77;;;;;;;;;;5068774;28;20476;-57
2023/07/06 03:25:55;;;;;;;3.77;2.17;;;;;;;;;;5050390;28;20693;-58
2023/07/06 03:28:28;;;;;;;2.53;2.27;;;;;;;;;;5051285;28;20187;-57
2023/07/06 03:30:56;;;;;;;3.23;2.20;;;;;;;;;;5069702;28;20199;-57
2023/07/06 03:33:24;;;;;;;2.63;2.43;;;;;;;;;;5050473;28;20175;-58
2023/07/06 03:35:54;;;;;;;2.37;2.17;;;;;;;;;;5069772;28;20579;-58
2023/07/06 03:38:21;;;;;;;2.53;2.33;;;;;;;;;;5069161;28;20195;-58
2023/07/06 03:40:51;;;;;;;2.50;2.30;;;;;;;;;;5069880;28;20177;-58
2023/07/06 03:43:17;;;;;;;3.60;2.47;;;;;;;;;;5069789;28;20204;-58
2023/07/06 03:45:46;;;;;;;2.47;2.23;;;;;;;;;;5069538;28;20620;-57
2023/07/06 03:48:13;;;;;;;4.73;2.83;;;;;;;;;;5068622;28;20162;-57
2023/07/06 03:50:39;;;;;;;3.17;2.53;;;;;;;;;;5069103;28;20168;-57
2023/07/06 03:53:05;;;;;;;2.90;2.57;;;;;;;;;;5068999;28;20223;-57
2023/07/06 03:55:32;;;;;;;2.10;1.90;;;;;;;;;;5069012;28;20161;-58
2023/07/06 03:58:00;;;;;;;2.23;2.10;;;;;;;;;;5068986;28;20196;-57
2023/07/06 04:00:28;;;;;;;2.70;2.50;;;;;;;;;;5069142;28;20169;-58
2023/07/06 04:02:59;;;;;;;2.80;2.50;;;;;;;;;;5068318;28;20161;-58
2023/07/06 04:05:32;;;;;;;2.30;2.10;;;;;;;;;;5050720;28;20196;-58
2023/07/06 04:08:06;;;;;;;2.07;1.87;;;;;;;;;;5069429;28;20522;-59
2023/07/06 04:10:34;;;;;;;3.90;2.53;;;;;;;;;;5069138;28;20241;-57
2023/07/06 04:13:00;;;;;;;2.53;2.27;;;;;;;;;;5068833;28;20168;-58
2023/07/06 04:15:27;;;;;;;2.33;1.90;;;;;;;;;;5068722;28;20173;-58
2023/07/06 04:17:53;;;;;;;3.67;2.93;;;;;;;;;;5067816;28;20586;-58
2023/07/06 04:20:27;;;;;;;2.70;2.27;;;;;;;;;;5069097;28;20684;-58
2023/07/06 04:22:54;;;;;;;2.30;2.10;;;;;;;;;;5068699;28;20196;-57
2023/07/06 04:25:28;;;;;;;3.20;2.90;;;;;;;;;;5068840;28;20157;-58
2023/07/06 04:27:55;;;;;;;4.77;2.47;;;;;;;;;;5069156;28;20160;-58
2023/07/06 04:30:21;;;;;;;2.20;1.90;;;;;;;;;;5068907;28;20259;-58
2023/07/06 04:32:50;;;;;;;2.27;2.00;;;;;;;;;;5068057;28;20247;-57
2023/07/06 04:35:18;;;;;;;4.93;2.63;;;;;;;;;;5069096;28;20176;-57
2023/07/06 04:37:45;;;;;;;2.30;2.10;;;;;;;;;;5073015;28;20199;-57
2023/07/06 04:40:13;;;;;;;2.93;2.13;;;;;;;;;;5073217;28;20539;-57
2023/07/06 04:42:42;;;;;;;4.47;2.33;;;;;;;;;;5072479;28;20168;-58
2023/07/06 04:45:09;;;;;;;2.50;2.30;;;;;;;;;;5072685;28;20692;-58
2023/07/06 04:47:36;;;;;;;2.30;2.10;;;;;;;;;;5071815;28;20187;-57
2023/07/06 04:50:03;;;;;;;3.80;2.60;;;;;;;;;;5072622;28;20164;-58
2023/07/06 04:52:31;;;;;;;3.47;2.70;;;;;;;;;;5072776;28;20180;-58
2023/07/06 04:54:58;;;;;;;3.03;2.27;;;;;;;;;;5072674;28;20684;-57
2023/07/06 04:57:25;;;;;;;3.37;2.03;;;;;;;;;;5072171;28;20310;-57
2023/07/06 04:59:51;;;;;;;3.87;2.17;;;;;;;;;;5072533;28;20149;-57
2023/07/06 05:02:17;;;;;;;3.53;2.77;;;;;;;;;;5071491;28;20179;-57
2023/07/06 05:04:44;;;;;;;3.83;2.20;;;;;;;;;;5071801;28;20189;-58
2023/07/06 05:07:12;;;;;;;3.57;2.33;;;;;;;;;;5072642;28;20179;-58
2023/07/06 05:09:40;;;;;;;5.63;2.47;;;;;;;;;;5072306;28;20252;-57
2023/07/06 05:12:07;;;;;;;5.57;2.27;;;;;;;;;;5072170;28;20172;-57
2023/07/06 05:14:36;;;;;;;2.97;2.30;;;;;;;;;;5072044;28;20181;-57
2023/07/06 05:17:02;;;;;;;3.20;2.57;;;;;;;;;;5071555;28;20204;-58
2023/07/06 05:19:29;;;;;;;5.07;2.33;;;;;;;;;;5071747;28;20200;-57
2023/07/06 05:21:55;;;;;;;3.20;2.40;;;;;;;;;;5053943;28;20228;-57
2023/07/06 05:24:25;;;;;;;3.27;1.97;;;;;;;;;;5071569;28;20210;-57
2023/07/06 05:26:51;;;;;;;3.97;2.37;;;;;;;;;;5071610;28;20548;-58
2023/07/06 05:29:18;;;;;;;4.03;2.83;;;;;;;;;;5071958;28;20259;-57
2023/07/06 05:31:48;;;;;;;5.17;2.03;;;;;;;;;;5071493;28;20711;-57
2023/07/06 05:34:14;;;;;;;3.80;2.27;;;;;;;;;;5070742;28;20188;-58
2023/07/06 05:36:40;;;;;;;4.20;2.30;;;;;;;;;;5071905;28;20177;-57
2023/07/06 05:39:07;;;;;;;3.03;2.17;;;;;;;;;;5071671;28;20164;-57
2023/07/06 05:41:34;;;;;;;3.27;2.27;;;;;;;;;;5071547;28;20682;-58
2023/07/06 05:44:01;;;;;;;2.57;2.13;;;;;;;;;;5071830;28;20170;-58
2023/07/06 05:46:27;;;;;;;6.70;3.33;;;;;;;;;;5070653;28;20571;-57
2023/07/06 05:48:54;;;;;;;3.67;2.63;;;;;;;;;;5068331;28;20644;-57
2023/07/06 05:51:20;;;;;;;3.43;2.53;;;;;;;;;;5070005;28;20655;-57
2023/07/06 05:53:50;;;;;;;3.53;2.17;;;;;;;;;;5069490;28;20172;-59
2023/07/06 05:56:18;;;;;;;4.27;2.23;;;;;;;;;;5069624;28;20294;-57
2023/07/06 05:58:44;;;;;;;2.30;2.10;;;;;;;;;;5069346;28;20200;-57
2023/07/06 06:01:11;;;;;;;2.90;2.10;;;;;;;;;;5069200;28;20250;-57
2023/07/06 06:03:40;;;;;;;3.20;2.10;;;;;;;;;;5068769;28;20165;-57
2023/07/06 06:06:06;;;;;;;3.00;2.13;;;;;;;;;;5070602;28;20161;-58
2023/07/06 06:08:32;;;;;;;5.30;3.43;;;;;;;;;;5070785;28;20179;-57
2023/07/06 06:11:02;;;;;;;5.23;2.43;;;;;;;;;;5071329;28;20633;-58
2023/07/06 06:13:30;;;;;;;3.00;2.23;;;;;;;;;;5070957;28;20188;-58
2023/07/06 06:15:57;;;;;;;4.93;2.33;;;;;;;;;;5071069;28;20181;-58
2023/07/06 06:18:25;;;;;;;5.60;2.63;;;;;;;;;;5069817;28;20269;-58
2023/07/06 06:20:51;;;;;;;3.50;2.50;;;;;;;;;;5071257;28;20534;-58
2023/07/06 06:23:20;;;;;;;2.60;2.37;;;;;;;;;;5071131;28;20171;-58
2023/07/06 06:25:49;;;;;;;4.37;2.67;;;;;;;;;;5071398;28;20742;-59
2023/07/06 06:28:16;;;;;;;2.83;2.10;;;;;;;;;;5071172;28;20182;-59
2023/07/06 06:30:42;;;;;;;3.07;2.53;;;;;;;;;;5071516;28;20163;-59
2023/07/06 06:33:09;;;;;;;2.77;2.30;;;;;;;;;;5069819;28;20180;-58
2023/07/06 06:35:36;;;;;;;4.87;2.40;;;;;;;;;;5071299;28;20640;-59
2023/07/06 06:38:05;;;;;;;2.87;2.40;;;;;;;;;;5052613;28;20208;-59
2023/07/06 06:40:32;;;;;;;4.37;2.50;;;;;;;;;;5052804;28;20183;-59
2023/07/06 06:43:00;;;;;;;6.13;2.53;;;;;;;;;;5071325;28;20170;-59
2023/07/06 06:45:26;;;;;;;4.13;2.27;;;;;;;;;;5070745;28;20180;-59
2023/07/06 06:47:53;;;;;;;4.53;2.67;;;;;;;;;;5069900;28;20168;-58
2023/07/06 06:50:20;;;;;;;3.37;2.40;;;;;;;;;;5071150;28;20182;-59
2023/07/06 06:52:46;;;;;;;6.10;2.57;;;;;;;;;;5070731;28;20187;-59
2023/07/06 06:55:12;;;;;;;4.60;2.77;;;;;;;;;;5071033;28;20635;-59
2023/07/06 06:57:39;;;;;;;5.57;2.40;;;;;;;;;;5070490;28;20257;-58
2023/07/06 07:00:09;;;;;;;3.87;2.50;;;;;;;;;;5070262;28;20157;-59
2023/07/06 07:02:38;;;;;;;3.20;2.50;;;;;;;;;;5069406;28;20676;-59
2023/07/06 07:05:05;;;;;;;5.57;2.60;;;;;;;;;;5069509;28;20208;-59
2023/07/06 07:07:31;;;;;;;3.20;2.50;;;;;;;;;;5070234;28;20184;-58
2023/07/06 07:09:58;;;;;;;3.27;2.60;;;;;;;;;;5070188;28;20200;-59
2023/07/06 07:12:25;;;;;;;4.77;2.83;;;;;;;;;;5070518;28;20168;-59
2023/07/06 07:14:51;;;;;;;5.67;2.33;;;;;;;;;;5070307;28;20172;-59
2023/07/06 07:17:17;;;;;;;6.97;2.90;;;;;;;;;;5069984;28;20192;-59
2023/07/06 07:19:43;;;;;;;4.00;2.60;;;;;;;;;;5069722;28;20213;-59
2023/07/06 07:22:10;;;;;;;8.50;2.53;;;;;;;;;;5070288;28;20366;-59
2023/07/06 07:24:36;;;;;;;6.53;2.83;;;;;;;;;;5070118;28;20531;-60
2023/07/06 07:27:02;;;;;;;4.70;2.93;;;;;;;;;;5070747;28;20241;-59
2023/07/06 07:29:29;;;;;;;7.63;2.53;;;;;;;;;;5052038;28;20184;-58
2023/07/06 07:31:55;;;;;;;3.83;2.67;;;;;;;;;;5069998;28;20547;-59
2023/07/06 07:34:22;;;;;;;5.00;3.07;;;;;;;;;;5069715;28;20189;-58
2023/07/06 07:36:48;;;;;;;4.43;2.80;;;;;;;;;;5070412;28;20172;-59
2023/07/06 07:39:17;;;;;;;5.90;3.43;;;;;;;;;;5070248;28;20210;-59
2023/07/06 07:41:45;;;;;;;6.13;2.83;;;;;;;;;;5070349;28;20581;-61
2023/07/06 07:44:11;;;;;;;5.27;2.57;;;;;;;;;;5070272;28;20175;-59
2023/07/06 07:46:37;;;;;;;5.03;2.60;;;;;;;;;;5070300;28;20593;-59
2023/07/06 07:49:04;;;;;;;6.20;2.87;;;;;;;;;;5069517;28;20624;-59
2023/07/06 07:51:31;;;;;;;6.10;3.10;;;;;;;;;;5070409;28;20184;-58
2023/07/06 07:53:57;;;;;;;6.77;3.30;;;;;;;;;;5070656;28;20580;-58
2023/07/06 07:56:25;;;;;;;5.80;3.00;;;;;;;;;;5070230;28;20234;-58
2023/07/06 07:58:51;;;;;;;6.37;3.47;;;;;;;;;;5070039;28;20184;-58
2023/07/06 08:01:20;;;;;;;6.40;3.87;;;;;;;;;;5070399;28;20180;-58
2023/07/06 08:03:47;;;;;;;7.23;3.17;;;;;;;;;;5069177;28;20197;-58
2023/07/06 08:06:14;;;;;;;5.73;3.50;;;;;;;;;;5069979;28;20252;-59
2023/07/06 08:08:43;;;;;;;5.60;3.00;;;;;;;;;;5069762;28;20177;-58
2023/07/06 08:11:14;;;;;;;4.87;2.93;;;;;;;;;;5069034;28;20226;-58
2023/07/06 08:13:44;;;;;;;9.57;3.40;;;;;;;;;;5069802;28;20161;-58
2023/07/06 08:16:12;;;;;;;7.73;3.33;;;;;;;;;;5069764;28;20180;-58
2023/07/06 08:18:41;;;;;;;3.20;2.77;;;;;;;;;;5068975;28;20192;-58
2023/07/06 08:21:08;;;;;;;6.37;2.80;;;;;;;;;;5070222;28;20176;-57
2023/07/06 08:23:35;;;;;;;5.60;2.83;;;;;;;;;;5069720;28;20562;-58
2023/07/06 08:26:04;;;;;;;4.83;3.00;;;;;;;;;;5070025;28;20173;-58
2023/07/06 08:28:31;;;;;;;4.33;2.97;;;;;;;;;;5069664;28;20169;-58
2023/07/06 08:31:01;;;;;;;6.20;2.77;;;;;;;;;;5069430;28;20172;-58
2023/07/06 08:33:27;;;;;;;5.30;3.47;;;;;;;;;;5068574;28;20161;-57
2023/07/06 08:35:56;;;;;;;7.80;3.20;;;;;;;;;;5051385;28;20177;-58
2023/07/06 08:38:22;;;;;;;4.43;3.30;;;;;;;;;;5069381;28;20204;-57
2023/07/06 08:40:52;;;;;;;7.17;3.10;;;;;;;;;;5069756;28;20155;-57
2023/07/06 08:43:23;;;;;;;5.10;3.03;;;;;;;;;;5069648;28;20168;-58
2023/07/06 08:45:52;;;;;;;6.27;2.80;;;;;;;;;;5069939;28;20585;-58
2023/07/06 08:48:27;;;;;;;4.13;3.20;;;;;;;;;;5050632;28;20173;-58
2023/07/06 08:50:58;;;;;;;5.27;2.87;;;;;;;;;;5069629;28;20172;-58
2023/07/06 08:53:27;;;;;;;6.13;2.90;;;;;;;;;;5069764;28;20181;-58
2023/07/06 08:55:53;;;;;;;4.77;2.40;;;;;;;;;;5069299;28;20235;-57
2023/07/06 08:58:27;;;;;;;6.83;2.97;;;;;;;;;;5069279;28;20201;-58
2023/07/06 09:01:00;;;;;;;4.53;2.80;;;;;;;;;;5069697;28;20168;-58
2023/07/06 09:03:33;;;;;;;3.33;2.70;;;;;;;;;;5068543;28;20172;-58
2023/07/06 09:06:00;;;;;;;5.37;2.77;;;;;;;;;;5049411;28;20632;-58
2023/07/06 09:08:27;;;;;;;4.27;2.63;;;;;;;;;;5048885;28;20154;-58
2023/07/06 09:10:53;;;;;;;4.23;2.80;;;;;;;;;;5049039;28;20169;-58
2023/07/06 09:13:25;;;;;;;4.83;2.77;;;;;;;;;;5049224;28;20193;-58
2023/07/06 09:15:56;;;;;;;5.40;3.00;;;;;;;;;;5049114;28;20188;-58
2023/07/06 09:18:23;;;;;;;3.50;2.67;;;;;;;;;;5048205;28;20260;-57
2023/07/06 09:20:50;;;;;;;5.47;2.83;;;;;;;;;;5049400;28;20195;-58
2023/07/06 09:23:16;;;;;;;4.90;3.03;;;;;;;;;;5052614;28;20169;-58
2023/07/06 09:25:44;;;;;;;5.40;3.03;;;;;;;;;;5052659;28;20621;-58
2023/07/06 09:28:23;;;;;;;2.73;2.47;;;;;;;;;;5052625;28;20174;-58
2023/07/06 09:30:50;;;;;;;4.77;2.47;;;;;;;;;;5051109;28;20173;-58
2023/07/06 09:33:26;;;;;;;7.43;3.23;;;;;;;;;;5051768;28;20708;-58
2023/07/06 09:35:54;;;;;;;4.57;2.93;;;;;;;;;;5052397;28;20271;-58
2023/07/06 09:38:21;;;;;;;4.10;3.10;;;;;;;;;;5051161;28;20205;-58
2023/07/06 09:40:49;;;;;;;5.30;3.03;;;;;;;;;;5052497;28;20166;-59
2023/07/06 09:43:26;;;;;;;5.70;2.57;;;;;;;;;;5052516;28;20185;-58
2023/07/06 09:45:53;;;;;;;5.57;2.70;;;;;;;;;;5052586;28;20181;-58
2023/07/06 09:48:32;;;;;;;4.10;2.90;;;;;;;;;;5051761;28;20181;-58
2023/07/06 09:51:06;;;;;;;3.43;2.23;;;;;;;;;;5050881;28;20569;-59
2023/07/06 09:53:34;;;;;;;2.77;2.57;;;;;;;;;;5051988;28;20173;-58
2023/07/06 09:56:02;;;;;;;7.90;2.60;;;;;;;;;;5052274;28;20295;-58
2023/07/06 09:58:30;;;;;;;3.00;2.30;;;;;;;;;;5050211;28;20727;-58
2023/07/06 10:01:03;;;;;;;6.17;2.60;;;;;;;;;;5052106;28;20257;-59
2023/07/06 10:03:41;;;;;;;3.47;2.30;;;;;;;;;;5051344;28;20277;-59
2023/07/06 10:06:26;;;;;;;7.97;3.27;;;;;;;;;;5051858;28;20162;-61
2023/07/06 10:08:58;;;;;;;4.63;2.60;;;;;;;;;;5051945;28;20169;-59
2023/07/06 10:11:30;;;;;;;6.00;2.40;;;;;;;;;;5051715;28;20279;-60
2023/07/06 10:14:00;;;;;;;3.67;2.20;;;;;;;;;;5051823;28;20162;-60
2023/07/06 10:16:42;;;;;;;4.63;2.90;;;;;;;;;;5051640;28;20235;-60
2023/07/06 10:19:12;;;;;;;8.63;3.70;;;;;;;;;;5051568;28;20177;-60
2023/07/06 10:21:43;;;;;;;9.17;2.80;;;;;;;;;;5052239;28;20166;-55
2023/07/06 10:24:30;;;;;;;5.50;2.77;;;;;;;;;;5051062;28;20161;-56
2023/07/06 10:26:59;;;;;;;6.03;2.40;;;;;;;;;;5050678;28;20225;-58
2023/07/06 10:29:45;;;;;;;6.30;2.87;;;;;;;;;;5051158;28;20718;-56
2023/07/06 10:32:18;;;;;;;4.90;2.77;;;;;;;;;;5050207;28;20178;-58
2023/07/06 10:34:45;;;;;;;3.57;2.60;;;;;;;;;;5048345;28;20551;-56
2023/07/06 10:37:15;;;;;;;3.83;2.60;;;;;;;;;;5051169;28;20265;-55
2023/07/06 10:39:44;;;;;;;6.43;2.70;;;;;;;;;;5050812;28;20175;-56
2023/07/06 10:42:26;;;;;;;10.77;2.80;;;;;;;;;;5050730;28;20197;-58
2023/07/06 10:44:55;;;;;;;3.50;2.30;;;;;;;;;;5050397;28;20544;-57
2023/07/06 10:47:32;;;;;;;5.23;2.70;;;;;;;;;;5050203;28;20165;-57
2023/07/06 10:50:19;;;;;;;3.37;2.60;;;;;;;;;;5050206;28;20161;-55
2023/07/06 10:52:55;;;;;;;4.83;2.80;;;;;;;;;;5050301;28;20162;-55
2023/07/06 10:55:25;;;;;;;6.50;2.40;;;;;;;;;;5048957;28;20648;-57
2023/07/06 10:57:51;;;;;;;3.00;2.67;;;;;;;;;;5048816;28;20392;-56
2023/07/06 11:00:19;;;;;;;7.30;2.80;;;;;;;;;;5050256;28;20652;-55
2023/07/06 11:02:46;;;;;;;3.20;2.23;;;;;;;;;;5049135;28;20158;-56
2023/07/06 11:05:24;;;;;;;4.00;2.43;;;;;;;;;;5062908;28;20528;-55
2023/07/06 11:07:52;;;;;;;2.93;2.27;;;;;;;;;;5069600;28;20264;-55
2023/07/06 11:10:24;;;;;;;3.17;2.63;;;;;;;;;;5051935;28;20256;-54
2023/07/06 11:12:57;;;;;;;3.07;2.80;;;;;;;;;;5051976;28;20192;-55
2023/07/06 11:15:31;;;;;;;4.38;3.10;;;;;;;;;;5069658;28;20758;-54
2023/07/06 11:17:57;;;;;;;4.77;2.93;;;;;;;;;;5068658;28;20578;-54
2023/07/06 11:20:29;;;;;;;6.27;2.90;;;;;;;;;;5069632;28;20206;-53
2023/07/06 11:23:04;;;;;;;6.00;4.17;;;;;;;;;;5069830;28;20240;-55
2023/07/06 11:25:31;;;;;;;7.77;3.63;;;;;;;;;;5069725;28;20184;-58
2023/07/06 11:28:05;;;;;;;5.87;2.77;;;;;;;;;;5070134;28;20177;-57
2023/07/06 11:30:52;;;;;;;5.83;2.90;;;;;;;;;;5070095;28;20166;-58
2023/07/06 11:33:25;;;;;;;4.17;2.70;;;;;;;;;;5068252;28;20180;-57
2023/07/06 11:36:00;;;;;;;4.90;2.53;;;;;;;;;;5070250;28;20165;-58
2023/07/06 11:38:45;;;;;;;3.93;2.93;;;;;;;;;;5069881;28;20538;-57
2023/07/06 11:41:26;;;;;;;2.90;2.37;;;;;;;;;;5070008;28;20526;-57
2023/07/06 11:43:52;;;;;;;5.90;2.60;;;;;;;;;;5069866;28;20263;-57
2023/07/06 11:46:43;;;;;;;4.53;2.70;;;;;;;;;;5068852;28;20183;-56
2023/07/06 11:49:36;;;;;;;5.13;2.50;;;;;;;;;;5068839;28;20576;-56
2023/07/06 11:52:05;;;;;;;3.20;2.57;;;;;;;;;;5066279;28;20778;-57
2023/07/06 11:55:49;;;;;;;2.57;2.20;;;;;;;;;;5069284;28;20640;-53
2023/07/06 11:57:31;;;;;;;6.00;2.90;;;;;;;;;;5050844;28;20760;-54
2023/07/06 12:00:48;;;;;;;6.23;2.50;;;;;;;;;;5069277;28;20183;-53
2023/07/06 12:03:08;;;;;;;5.20;2.30;;;;;;;;;;5063683;28;20177;-54
2023/07/06 12:05:42;;;;;;;3.37;2.30;;;;;;;;;;5052497;28;20197;-54
2023/07/06 12:08:23;;;;;;;3.67;2.17;;;;;;;;;;5048654;28;20200;-53
2023/07/06 12:10:51;;;;;;;5.97;2.33;;;;;;;;;;5048840;28;20162;-53
2023/07/06 12:13:21;;;;;;;2.03;1.93;;;;;;;;;;5052057;28;20184;-54
2023/07/06 12:15:48;;;;;;;2.53;2.00;;;;;;;;;;5069084;28;20176;-53
2023/07/06 12:18:15;;;;;;;3.07;2.10;;;;;;;;;;5067628;28;20188;-54
2023/07/06 12:20:42;;;;;;;5.20;2.40;;;;;;;;;;5068630;28;20173;-53
2023/07/06 12:23:12;;;;;;;3.10;2.70;;;;;;;;;;5068775;28;20646;-54
2023/07/06 12:25:40;;;;;;;4.63;2.63;;;;;;;;;;5050262;28;20536;-54
2023/07/06 12:28:10;;;;;;;3.00;2.40;;;;;;;;;;5068320;28;20183;-55
2023/07/06 12:30:37;;;;;;;2.27;2.10;;;;;;;;;;5068611;28;20212;-54
2023/07/06 12:33:10;;;;;;;5.43;2.30;;;;;;;;;;5067832;28;20213;-54
2023/07/06 12:35:37;;;;;;;2.37;2.17;;;;;;;;;;5069042;28;20179;-54
2023/07/06 12:38:09;;;;;;;4.43;3.00;;;;;;;;;;5050192;28;20211;-53
2023/07/06 12:40:35;;;;;;;3.83;2.70;;;;;;;;;;5068405;28;20574;-54
2023/07/06 12:43:03;;;;;;;2.53;2.00;;;;;;;;;;5068416;28;20169;-55
2023/07/06 12:45:30;;;;;;;4.67;2.43;;;;;;;;;;5068515;28;20181;-55
2023/07/06 12:47:58;;;;;;;4.17;2.10;;;;;;;;;;5067565;28;20168;-53
2023/07/06 12:50:30;;;;;;;3.70;2.10;;;;;;;;;;5068418;28;20224;-53
2023/07/06 12:53:08;;;;;;;3.03;2.20;;;;;;;;;;5068551;28;20169;-54
2023/07/06 12:55:36;;;;;;;2.13;1.93;;;;;;;;;;5068932;28;20185;-57
2023/07/06 12:58:37;;;;;;;2.30;2.10;;;;;;;;;;5072193;28;20648;-56
2023/07/06 13:01:18;;;;;;;2.17;1.97;;;;;;;;;;4975275;28;20230;-57
2023/07/06 13:03:52;;;;;;;2.57;2.37;;;;;;;;;;5045845;28;20553;-57
2023/07/06 13:06:24;;;;;;;2.20;2.00;;;;;;;;;;5073240;28;20187;-58
2023/07/06 13:08:54;;;;;;;2.83;2.33;;;;;;;;;;5072578;28;20157;-57
2023/07/06 13:11:22;;;;;;;2.40;2.10;;;;;;;;;;5073008;28;20182;-58
2023/07/06 13:13:50;;;;;;;2.30;2.07;;;;;;;;;;5072663;28;20615;-58
2023/07/06 13:16:18;;;;;;;2.03;1.90;;;;;;;;;;5054789;28;20627;-57
2023/07/06 13:18:46;;;;;;;2.93;2.67;;;;;;;;;;5053915;28;20232;-58
2023/07/06 13:21:33;;;;;;;2.60;2.30;;;;;;;;;;5072870;28;20165;-58
2023/07/06 13:24:00;;;;;;;2.40;2.00;;;;;;;;;;5072776;28;20218;-58
2023/07/06 13:26:26;;;;;;;5.37;2.43;;;;;;;;;;5072903;28;20177;-57
2023/07/06 13:28:54;;;;;;;4.33;2.50;;;;;;;;;;5072462;28;20180;-56
2023/07/06 13:31:20;;;;;;;4.57;2.33;;;;;;;;;;5053870;28;20184;-56
2023/07/06 13:33:47;;;;;;;2.80;2.40;;;;;;;;;;5071199;28;20192;-56
2023/07/06 13:36:14;;;;;;;2.93;2.63;;;;;;;;;;5072101;28;20160;-56
2023/07/06 13:38:40;;;;;;;2.43;2.23;;;;;;;;;;5071867;28;20201;-55
2023/07/06 13:41:08;;;;;;;3.10;2.80;;;;;;;;;;5072787;28;20521;-58
2023/07/06 13:43:35;;;;;;;4.93;2.40;;;;;;;;;;5072603;28;20782;-58
2023/07/06 13:46:03;;;;;;;2.20;2.00;;;;;;;;;;5072531;28;20590;-58
2023/07/06 13:48:29;;;;;;;2.30;2.17;;;;;;;;;;5071712;28;20261;-57
2023/07/06 13:50:55;;;;;;;3.10;2.37;;;;;;;;;;5072893;28;20579;-58
2023/07/06 13:53:21;;;;;;;2.50;2.20;;;;;;;;;;5072753;28;20175;-57
2023/07/06 13:55:55;;;;;;;4.20;2.70;;;;;;;;;;5072014;28;20635;-56
2023/07/06 13:58:22;;;;;;;3.00;2.70;;;;;;;;;;5071780;28;20661;-55
2023/07/06 14:00:49;;;;;;;2.97;2.40;;;;;;;;;;5071755;28;20225;-57
2023/07/06 14:03:17;;;;;;;3.03;2.80;;;;;;;;;;5070788;28;20187;-56
2023/07/06 14:05:44;;;;;;;2.97;2.10;;;;;;;;;;5071317;28;20423;-55
2023/07/06 14:08:10;;;;;;;3.17;2.50;;;;;;;;;;5070386;28;20414;-55
2023/07/06 14:10:38;;;;;;;3.27;2.43;;;;;;;;;;5071293;28;20193;-55
2023/07/06 14:13:05;;;;;;;3.87;2.93;;;;;;;;;;5053723;28;20178;-57
2023/07/06 14:15:31;;;;;;;3.80;2.80;;;;;;;;;;5073039;28;20644;-57
2023/07/06 14:17:57;;;;;;;2.97;2.30;;;;;;;;;;5071430;28;20186;-57
2023/07/06 14:20:24;;;;;;;2.67;2.37;;;;;;;;;;5071981;28;20578;-57
2023/07/06 14:22:52;;;;;;;5.73;2.23;;;;;;;;;;5072405;28;20180;-57
2023/07/06 14:25:20;;;;;;;3.33;2.53;;;;;;;;;;5072488;28;20539;-58
2023/07/06 14:27:46;;;;;;;2.87;2.33;;;;;;;;;;5071659;28;20228;-58
2023/07/06 14:30:13;;;;;;;4.10;3.13;;;;;;;;;;5072244;28;20679;-57
2023/07/06 14:32:40;;;;;;;3.23;2.90;;;;;;;;;;5071634;28;20938;-58
2023/07/06 14:35:06;;;;;;;4.23;3.10;;;;;;;;;;5071733;28;20175;-58
2023/07/06 14:37:33;;;;;;;3.23;2.70;;;;;;;;;;5071533;28;20215;-58
2023/07/06 14:39:59;;;;;;;5.07;2.80;;;;;;;;;;5072051;28;20654;-58
2023/07/06 14:42:26;;;;;;;5.27;3.30;;;;;;;;;;5053866;28;20637;-58
2023/07/06 14:44:52;;;;;;;5.03;2.97;;;;;;;;;;5048621;28;20319;-57
2023/07/06 14:47:18;;;;;;;2.80;2.60;;;;;;;;;;5050518;28;20603;-58
2023/07/06 14:49:45;;;;;;;3.10;2.80;;;;;;;;;;5050437;28;20476;-58
2023/07/06 14:52:11;;;;;;;3.40;2.60;;;;;;;;;;5050123;28;20170;-57
2023/07/06 14:54:37;;;;;;;3.10;2.80;;;;;;;;;;5051184;28;20642;-57
2023/07/06 14:57:05;;;;;;;4.37;3.97;;;;;;;;;;5049229;28;20722;-57